Decoded Metar for DTNH ( in ) (IATA:) | Meteo·Mobile Aviation Weather
aviador You're here:

DTNH Decoded Metar

in
Report Time2019-03-23 21:00:00
UTC Time2019-03-23 21:22:30
Flight Rules vfr VFR
Wind260° at 02 kt
W.Decomp.*RWY 27: 2.0 kt HW 0.3 kt LCW
W.Rank260° ranks 11
Current wind is below 260° avg. (7.3)
Visibility8000 m
Phenomena:N/A
Clouds:Scattered 026 Hf
Expected CloudBase > 800 ft AGL from Temp-Dew spread
CeilingNone
Temp13°C
Dew Point11°C (88% RH)
AAT12.6°C
QNH1022 hPa
Raw Report
METAR DTNH 232100Z 26002KT 8000 SCT026 13/11 Q1022 NOSIG=

Extra information for DTNH:More info

Social comments